world map with PEV marked

PEV - Airport

This information may not be accurate or current and is not valid for navigation or flight planning. No warranty of fitness for any purpose is made or implied.

flag of Baranyaflag of Hungary

Donate via PayPal

Additional information is available on the NEW Great Circle Mapper

Location
City:  Pécs, Baranya, Hungary
Name:Pécs-Pogány International (Pécs South Airport)
ICAO / IATA:LHPP / PEV

Details
Type:Airport (Aerodrome, Airfield)
Latitude:45°59'27"N (45.990928)
Longitude:18°14'28"E (18.240983)
Datum:WGS 1984
Elevation:1000 ft (305 m)
Runways:1
Longest:4922 × 98 ft (1500 × 30 m)

Time
Timezone:UTC+1 (DST+4)
Local Time:

Weather
METAR:LHPP  041345Z 36011KT 9999 SCT033 BKN200 05/M02 Q1029
TAF:LHPP  (expired)

Related Locations
Nearby:
Farthest:CHT: 11704 mi / 18836 km
Waitangi [Tuuta], CIT, NZ

Find:

   beyond  
but within

Other Information
Maps:
Sources:

  


 


Great Circle Mapper   Great Circle Mapper
Great Circle Mapper FAQ   Great Circle Mapper FAQ
  Karl's Home Page
KLS˛   KLS˛ Home
   GC on Facebook
Airlines of the World   Airlines of the World
Donate via PayPal


Copyright © 2004-2019, Karl L. Swartz. All rights reserved.
All trademarks mentioned herein belong to their respective owners.

Please see credits for attribution and copyright information.

Karl Swartz <karl@kls2.com>
  Powered by FreeBSD
Valid HTML 4.01!
Labeled with ICRA
hCard Microformat
Geo Microformat